sensor_id;sensor_type;location;lat;lon;timestamp;P1;durP1;ratioP1;P2;durP2;ratioP2
32152;SDS011;18656;50.580;11.392;2022-07-09T00:01:45;3.97;;;2.28;;
32152;SDS011;18656;50.580;11.392;2022-07-09T00:04:13;2.58;;;2.38;;
32152;SDS011;18656;50.580;11.392;2022-07-09T00:06:40;2.47;;;2.10;;
32152;SDS011;18656;50.580;11.392;2022-07-09T00:09:07;4.10;;;1.95;;
32152;SDS011;18656;50.580;11.392;2022-07-09T00:11:34;3.25;;;2.60;;
32152;SDS011;18656;50.580;11.392;2022-07-09T00:14:02;2.85;;;2.42;;
32152;SDS011;18656;50.580;11.392;2022-07-09T00:16:29;2.72;;;2.45;;
32152;SDS011;18656;50.580;11.392;2022-07-09T00:18:56;3.50;;;2.40;;
32152;SDS011;18656;50.580;11.392;2022-07-09T00:21:23;2.90;;;2.40;;
32152;SDS011;18656;50.580;11.392;2022-07-09T00:23:50;2.78;;;2.33;;
32152;SDS011;18656;50.580;11.392;2022-07-09T00:26:17;2.55;;;2.28;;
32152;SDS011;18656;50.580;11.392;2022-07-09T00:28:45;2.72;;;2.22;;
32152;SDS011;18656;50.580;11.392;2022-07-09T00:31:12;4.40;;;2.60;;
32152;SDS011;18656;50.580;11.392;2022-07-09T00:33:39;2.40;;;2.30;;
32152;SDS011;18656;50.580;11.392;2022-07-09T00:36:06;2.92;;;2.58;;
32152;SDS011;18656;50.580;11.392;2022-07-09T00:38:33;3.60;;;2.47;;
32152;SDS011;18656;50.580;11.392;2022-07-09T00:41:02;4.85;;;2.63;;
32152;SDS011;18656;50.580;11.392;2022-07-09T00:43:29;8.30;;;3.25;;
32152;SDS011;18656;50.580;11.392;2022-07-09T00:45:57;4.38;;;2.80;;
32152;SDS011;18656;50.580;11.392;2022-07-09T00:48:24;3.40;;;3.08;;
32152;SDS011;18656;50.580;11.392;2022-07-09T00:50:51;6.45;;;2.83;;
32152;SDS011;18656;50.580;11.392;2022-07-09T00:53:21;6.07;;;3.13;;
32152;SDS011;18656;50.580;11.392;2022-07-09T00:55:51;4.57;;;2.95;;
32152;SDS011;18656;50.580;11.392;2022-07-09T00:58:18;3.60;;;2.92;;
32152;SDS011;18656;50.580;11.392;2022-07-09T01:00:46;4.45;;;3.20;;
32152;SDS011;18656;50.580;11.392;2022-07-09T01:03:13;3.50;;;2.80;;
32152;SDS011;18656;50.580;11.392;2022-07-09T01:05:41;5.10;;;2.97;;
32152;SDS011;18656;50.580;11.392;2022-07-09T01:08:08;6.88;;;3.10;;
32152;SDS011;18656;50.580;11.392;2022-07-09T01:10:35;3.38;;;3.08;;
32152;SDS011;18656;50.580;11.392;2022-07-09T01:13:03;7.60;;;3.25;;
32152;SDS011;18656;50.580;11.392;2022-07-09T01:15:32;8.07;;;3.20;;
32152;SDS011;18656;50.580;11.392;2022-07-09T01:17:59;3.53;;;3.17;;
32152;SDS011;18656;50.580;11.392;2022-07-09T01:20:27;3.60;;;3.00;;
32152;SDS011;18656;50.580;11.392;2022-07-09T01:22:58;3.65;;;3.08;;
32152;SDS011;18656;50.580;11.392;2022-07-09T01:25:34;4.60;;;3.00;;
32152;SDS011;18656;50.580;11.392;2022-07-09T01:28:02;3.03;;;2.85;;
32152;SDS011;18656;50.580;11.392;2022-07-09T01:30:31;3.67;;;3.30;;
32152;SDS011;18656;50.580;11.392;2022-07-09T01:32:59;3.50;;;3.20;;
32152;SDS011;18656;50.580;11.392;2022-07-09T01:35:26;4.40;;;3.22;;
32152;SDS011;18656;50.580;11.392;2022-07-09T01:37:53;4.00;;;3.67;;
32152;SDS011;18656;50.580;11.392;2022-07-09T01:40:21;5.50;;;3.50;;
32152;SDS011;18656;50.580;11.392;2022-07-09T01:42:48;4.60;;;3.05;;
32152;SDS011;18656;50.580;11.392;2022-07-09T01:45:16;4.60;;;3.53;;
32152;SDS011;18656;50.580;11.392;2022-07-09T01:47:43;5.20;;;3.63;;
32152;SDS011;18656;50.580;11.392;2022-07-09T01:50:10;5.00;;;3.53;;
32152;SDS011;18656;50.580;11.392;2022-07-09T01:52:38;4.88;;;3.40;;
32152;SDS011;18656;50.580;11.392;2022-07-09T01:55:05;3.47;;;3.15;;
32152;SDS011;18656;50.580;11.392;2022-07-09T01:57:32;6.45;;;2.95;;
32152;SDS011;18656;50.580;11.392;2022-07-09T01:59:59;4.18;;;3.47;;
32152;SDS011;18656;50.580;11.392;2022-07-09T02:02:26;5.53;;;3.25;;
32152;SDS011;18656;50.580;11.392;2022-07-09T02:04:54;4.47;;;3.60;;
32152;SDS011;18656;50.580;11.392;2022-07-09T02:07:21;3.55;;;3.15;;
32152;SDS011;18656;50.580;11.392;2022-07-09T02:09:48;5.45;;;3.65;;
32152;SDS011;18656;50.580;11.392;2022-07-09T02:12:16;3.63;;;3.33;;
32152;SDS011;18656;50.580;11.392;2022-07-09T02:14:43;3.97;;;3.33;;
32152;SDS011;18656;50.580;11.392;2022-07-09T02:17:10;5.72;;;3.20;;
32152;SDS011;18656;50.580;11.392;2022-07-09T02:19:38;4.72;;;3.50;;
32152;SDS011;18656;50.580;11.392;2022-07-09T02:22:05;4.88;;;4.07;;
32152;SDS011;18656;50.580;11.392;2022-07-09T02:24:32;7.30;;;4.28;;
32152;SDS011;18656;50.580;11.392;2022-07-09T02:26:59;8.55;;;4.50;;
32152;SDS011;18656;50.580;11.392;2022-07-09T02:29:26;7.18;;;4.07;;
32152;SDS011;18656;50.580;11.392;2022-07-09T02:31:54;4.80;;;4.40;;
32152;SDS011;18656;50.580;11.392;2022-07-09T02:34:21;6.38;;;3.72;;
32152;SDS011;18656;50.580;11.392;2022-07-09T02:36:48;6.75;;;4.60;;
32152;SDS011;18656;50.580;11.392;2022-07-09T02:39:15;6.05;;;3.97;;
32152;SDS011;18656;50.580;11.392;2022-07-09T02:41:43;4.18;;;3.88;;
32152;SDS011;18656;50.580;11.392;2022-07-09T02:44:10;5.28;;;4.78;;
32152;SDS011;18656;50.580;11.392;2022-07-09T02:46:37;4.93;;;4.63;;
32152;SDS011;18656;50.580;11.392;2022-07-09T02:49:04;5.07;;;4.63;;
32152;SDS011;18656;50.580;11.392;2022-07-09T02:51:32;4.50;;;4.20;;
32152;SDS011;18656;50.580;11.392;2022-07-09T02:53:59;4.50;;;3.72;;
32152;SDS011;18656;50.580;11.392;2022-07-09T02:56:26;4.47;;;4.18;;
32152;SDS011;18656;50.580;11.392;2022-07-09T02:58:53;4.40;;;4.00;;
32152;SDS011;18656;50.580;11.392;2022-07-09T03:01:20;4.45;;;3.35;;
32152;SDS011;18656;50.580;11.392;2022-07-09T03:03:47;5.38;;;4.45;;
32152;SDS011;18656;50.580;11.392;2022-07-09T03:06:15;4.85;;;4.45;;
32152;SDS011;18656;50.580;11.392;2022-07-09T03:08:42;6.32;;;4.20;;
32152;SDS011;18656;50.580;11.392;2022-07-09T03:11:09;11.82;;;4.15;;
32152;SDS011;18656;50.580;11.392;2022-07-09T03:13:36;10.80;;;4.50;;
32152;SDS011;18656;50.580;11.392;2022-07-09T03:16:04;4.55;;;4.15;;
32152;SDS011;18656;50.580;11.392;2022-07-09T03:18:32;7.30;;;4.13;;
32152;SDS011;18656;50.580;11.392;2022-07-09T03:21:00;5.43;;;4.13;;
32152;SDS011;18656;50.580;11.392;2022-07-09T03:23:27;6.68;;;5.00;;
32152;SDS011;18656;50.580;11.392;2022-07-09T03:25:54;7.75;;;4.00;;
32152;SDS011;18656;50.580;11.392;2022-07-09T03:28:21;7.03;;;4.32;;
32152;SDS011;18656;50.580;11.392;2022-07-09T03:30:48;5.88;;;4.55;;
32152;SDS011;18656;50.580;11.392;2022-07-09T03:33:16;9.23;;;5.22;;
32152;SDS011;18656;50.580;11.392;2022-07-09T03:35:43;6.53;;;4.40;;
32152;SDS011;18656;50.580;11.392;2022-07-09T03:38:10;5.60;;;3.78;;
32152;SDS011;18656;50.580;11.392;2022-07-09T03:40:37;3.97;;;3.47;;
32152;SDS011;18656;50.580;11.392;2022-07-09T03:43:04;3.95;;;3.35;;
32152;SDS011;18656;50.580;11.392;2022-07-09T03:45:32;3.88;;;3.30;;
32152;SDS011;18656;50.580;11.392;2022-07-09T03:47:59;3.92;;;2.67;;
32152;SDS011;18656;50.580;11.392;2022-07-09T03:50:26;3.38;;;3.08;;
32152;SDS011;18656;50.580;11.392;2022-07-09T03:52:53;3.10;;;2.47;;
32152;SDS011;18656;50.580;11.392;2022-07-09T03:55:21;3.28;;;2.47;;
32152;SDS011;18656;50.580;11.392;2022-07-09T03:57:48;3.10;;;2.40;;
32152;SDS011;18656;50.580;11.392;2022-07-09T04:00:15;2.75;;;2.65;;
32152;SDS011;18656;50.580;11.392;2022-07-09T04:02:42;3.90;;;2.53;;
32152;SDS011;18656;50.580;11.392;2022-07-09T04:05:09;3.03;;;2.83;;
32152;SDS011;18656;50.580;11.392;2022-07-09T04:07:37;4.93;;;4.03;;
32152;SDS011;18656;50.580;11.392;2022-07-09T04:10:06;4.18;;;2.47;;
32152;SDS011;18656;50.580;11.392;2022-07-09T04:12:33;2.17;;;1.92;;
32152;SDS011;18656;50.580;11.392;2022-07-09T04:15:00;2.80;;;2.03;;
32152;SDS011;18656;50.580;11.392;2022-07-09T04:17:27;2.85;;;2.60;;
32152;SDS011;18656;50.580;11.392;2022-07-09T04:19:54;5.55;;;2.30;;
32152;SDS011;18656;50.580;11.392;2022-07-09T04:22:22;3.80;;;2.40;;
32152;SDS011;18656;50.580;11.392;2022-07-09T04:24:54;5.57;;;2.20;;
32152;SDS011;18656;50.580;11.392;2022-07-09T04:27:21;10.90;;;2.60;;
32152;SDS011;18656;50.580;11.392;2022-07-09T04:29:51;10.02;;;2.65;;
32152;SDS011;18656;50.580;11.392;2022-07-09T04:32:20;5.22;;;2.30;;
32152;SDS011;18656;50.580;11.392;2022-07-09T04:34:47;5.97;;;2.50;;
32152;SDS011;18656;50.580;11.392;2022-07-09T04:37:14;6.20;;;1.90;;
32152;SDS011;18656;50.580;11.392;2022-07-09T04:39:42;4.70;;;2.42;;
32152;SDS011;18656;50.580;11.392;2022-07-09T04:42:09;3.88;;;2.70;;
32152;SDS011;18656;50.580;11.392;2022-07-09T04:44:38;2.60;;;2.40;;
32152;SDS011;18656;50.580;11.392;2022-07-09T04:47:09;2.38;;;1.73;;
32152;SDS011;18656;50.580;11.392;2022-07-09T04:49:36;2.45;;;2.25;;
32152;SDS011;18656;50.580;11.392;2022-07-09T04:52:04;2.17;;;1.90;;
32152;SDS011;18656;50.580;11.392;2022-07-09T04:54:31;1.63;;;1.52;;
32152;SDS011;18656;50.580;11.392;2022-07-09T04:56:58;2.22;;;2.00;;
32152;SDS011;18656;50.580;11.392;2022-07-09T04:59:25;1.65;;;1.48;;
32152;SDS011;18656;50.580;11.392;2022-07-09T05:01:54;4.40;;;1.58;;
32152;SDS011;18656;50.580;11.392;2022-07-09T05:04:23;4.25;;;1.77;;
32152;SDS011;18656;50.580;11.392;2022-07-09T05:06:52;3.05;;;1.30;;
32152;SDS011;18656;50.580;11.392;2022-07-09T05:09:19;2.08;;;1.27;;
32152;SDS011;18656;50.580;11.392;2022-07-09T05:11:47;2.67;;;1.58;;
32152;SDS011;18656;50.580;11.392;2022-07-09T05:14:14;1.20;;;1.10;;
32152;SDS011;18656;50.580;11.392;2022-07-09T05:16:41;1.05;;;1.02;;
32152;SDS011;18656;50.580;11.392;2022-07-09T05:19:11;1.70;;;1.42;;
32152;SDS011;18656;50.580;11.392;2022-07-09T05:21:39;3.88;;;1.30;;
32152;SDS011;18656;50.580;11.392;2022-07-09T05:24:06;4.22;;;1.42;;
32152;SDS011;18656;50.580;11.392;2022-07-09T05:26:34;6.32;;;1.50;;
32152;SDS011;18656;50.580;11.392;2022-07-09T05:29:05;5.25;;;1.50;;
32152;SDS011;18656;50.580;11.392;2022-07-09T05:31:32;2.65;;;1.30;;
32152;SDS011;18656;50.580;11.392;2022-07-09T05:34:01;3.40;;;1.20;;
32152;SDS011;18656;50.580;11.392;2022-07-09T05:36:29;2.50;;;1.00;;
32152;SDS011;18656;50.580;11.392;2022-07-09T05:38:57;4.45;;;1.00;;
32152;SDS011;18656;50.580;11.392;2022-07-09T05:41:24;3.15;;;0.98;;
32152;SDS011;18656;50.580;11.392;2022-07-09T05:43:52;2.75;;;1.20;;
32152;SDS011;18656;50.580;11.392;2022-07-09T05:46:20;4.03;;;1.55;;
32152;SDS011;18656;50.580;11.392;2022-07-09T05:48:47;1.95;;;1.10;;
32152;SDS011;18656;50.580;11.392;2022-07-09T05:51:15;8.38;;;1.33;;
32152;SDS011;18656;50.580;11.392;2022-07-09T05:53:42;3.15;;;1.25;;
32152;SDS011;18656;50.580;11.392;2022-07-09T05:56:10;16.90;;;2.35;;
32152;SDS011;18656;50.580;11.392;2022-07-09T05:58:39;5.82;;;1.85;;
32152;SDS011;18656;50.580;11.392;2022-07-09T06:01:06;6.85;;;1.25;;
32152;SDS011;18656;50.580;11.392;2022-07-09T06:03:34;6.82;;;1.20;;
32152;SDS011;18656;50.580;11.392;2022-07-09T06:06:01;8.25;;;1.80;;
32152;SDS011;18656;50.580;11.392;2022-07-09T06:08:28;2.42;;;1.40;;
32152;SDS011;18656;50.580;11.392;2022-07-09T06:10:55;6.03;;;1.50;;
32152;SDS011;18656;50.580;11.392;2022-07-09T06:13:22;4.72;;;1.42;;
32152;SDS011;18656;50.580;11.392;2022-07-09T06:15:50;4.82;;;1.55;;
32152;SDS011;18656;50.580;11.392;2022-07-09T06:18:17;3.90;;;1.48;;
32152;SDS011;18656;50.580;11.392;2022-07-09T06:20:45;2.45;;;1.23;;
32152;SDS011;18656;50.580;11.392;2022-07-09T06:23:12;6.72;;;1.95;;
32152;SDS011;18656;50.580;11.392;2022-07-09T06:25:39;5.07;;;1.60;;
32152;SDS011;18656;50.580;11.392;2022-07-09T06:28:07;6.13;;;1.33;;
32152;SDS011;18656;50.580;11.392;2022-07-09T06:30:34;9.07;;;1.65;;
32152;SDS011;18656;50.580;11.392;2022-07-09T06:33:02;4.20;;;1.42;;
32152;SDS011;18656;50.580;11.392;2022-07-09T06:35:29;6.38;;;1.63;;
32152;SDS011;18656;50.580;11.392;2022-07-09T06:37:57;3.03;;;1.42;;
32152;SDS011;18656;50.580;11.392;2022-07-09T06:40:24;6.53;;;1.70;;
32152;SDS011;18656;50.580;11.392;2022-07-09T06:42:52;4.85;;;2.17;;
32152;SDS011;18656;50.580;11.392;2022-07-09T06:45:19;7.38;;;2.00;;
32152;SDS011;18656;50.580;11.392;2022-07-09T06:47:46;4.65;;;1.60;;
32152;SDS011;18656;50.580;11.392;2022-07-09T06:50:13;6.28;;;1.60;;
32152;SDS011;18656;50.580;11.392;2022-07-09T06:52:41;8.77;;;2.20;;
32152;SDS011;18656;50.580;11.392;2022-07-09T06:55:08;7.70;;;1.90;;
32152;SDS011;18656;50.580;11.392;2022-07-09T06:57:37;4.43;;;1.73;;
32152;SDS011;18656;50.580;11.392;2022-07-09T07:00:04;5.80;;;2.20;;
32152;SDS011;18656;50.580;11.392;2022-07-09T07:02:32;4.80;;;2.30;;
32152;SDS011;18656;50.580;11.392;2022-07-09T07:04:59;9.32;;;1.70;;
32152;SDS011;18656;50.580;11.392;2022-07-09T07:07:26;5.53;;;1.50;;
32152;SDS011;18656;50.580;11.392;2022-07-09T07:09:53;8.60;;;1.55;;
32152;SDS011;18656;50.580;11.392;2022-07-09T07:12:21;9.13;;;1.77;;
32152;SDS011;18656;50.580;11.392;2022-07-09T07:14:48;12.20;;;1.95;;
32152;SDS011;18656;50.580;11.392;2022-07-09T07:17:16;6.63;;;1.40;;
32152;SDS011;18656;50.580;11.392;2022-07-09T07:19:44;8.23;;;1.88;;
32152;SDS011;18656;50.580;11.392;2022-07-09T07:22:11;8.40;;;1.92;;
32152;SDS011;18656;50.580;11.392;2022-07-09T07:24:38;7.25;;;1.70;;
32152;SDS011;18656;50.580;11.392;2022-07-09T07:27:05;12.82;;;2.03;;
32152;SDS011;18656;50.580;11.392;2022-07-09T07:29:32;9.00;;;1.63;;
32152;SDS011;18656;50.580;11.392;2022-07-09T07:31:59;8.32;;;1.70;;
32152;SDS011;18656;50.580;11.392;2022-07-09T07:34:27;5.50;;;1.55;;
32152;SDS011;18656;50.580;11.392;2022-07-09T07:36:54;6.32;;;1.85;;
32152;SDS011;18656;50.580;11.392;2022-07-09T07:39:21;4.10;;;1.50;;
32152;SDS011;18656;50.580;11.392;2022-07-09T07:41:51;3.95;;;1.40;;
32152;SDS011;18656;50.580;11.392;2022-07-09T07:44:18;8.40;;;1.60;;
32152;SDS011;18656;50.580;11.392;2022-07-09T07:46:45;5.03;;;1.25;;
32152;SDS011;18656;50.580;11.392;2022-07-09T07:49:12;4.18;;;1.23;;
32152;SDS011;18656;50.580;11.392;2022-07-09T07:51:40;2.83;;;1.20;;
32152;SDS011;18656;50.580;11.392;2022-07-09T07:54:09;4.57;;;1.40;;
32152;SDS011;18656;50.580;11.392;2022-07-09T07:56:36;1.42;;;1.20;;
32152;SDS011;18656;50.580;11.392;2022-07-09T07:59:05;2.03;;;1.42;;
32152;SDS011;18656;50.580;11.392;2022-07-09T08:01:32;2.25;;;1.13;;
32152;SDS011;18656;50.580;11.392;2022-07-09T08:04:00;4.72;;;1.63;;
32152;SDS011;18656;50.580;11.392;2022-07-09T08:06:27;4.25;;;1.60;;
32152;SDS011;18656;50.580;11.392;2022-07-09T08:08:54;5.15;;;1.40;;
32152;SDS011;18656;50.580;11.392;2022-07-09T08:11:21;2.65;;;1.30;;
32152;SDS011;18656;50.580;11.392;2022-07-09T08:13:49;2.78;;;1.40;;
32152;SDS011;18656;50.580;11.392;2022-07-09T08:16:16;1.70;;;1.60;;
32152;SDS011;18656;50.580;11.392;2022-07-09T08:18:45;2.78;;;1.60;;
32152;SDS011;18656;50.580;11.392;2022-07-09T08:21:13;13.88;;;1.77;;
32152;SDS011;18656;50.580;11.392;2022-07-09T08:23:40;6.22;;;1.40;;
32152;SDS011;18656;50.580;11.392;2022-07-09T08:26:23;3.10;;;1.52;;
32152;SDS011;18656;50.580;11.392;2022-07-09T08:28:51;37.92;;;4.75;;
32152;SDS011;18656;50.580;11.392;2022-07-09T08:31:18;4.90;;;1.77;;
32152;SDS011;18656;50.580;11.392;2022-07-09T08:33:46;1.30;;;1.17;;
32152;SDS011;18656;50.580;11.392;2022-07-09T08:36:13;2.47;;;1.50;;
32152;SDS011;18656;50.580;11.392;2022-07-09T08:38:41;1.73;;;1.50;;
32152;SDS011;18656;50.580;11.392;2022-07-09T08:41:08;5.03;;;0.98;;
32152;SDS011;18656;50.580;11.392;2022-07-09T08:43:37;1.48;;;1.10;;
32152;SDS011;18656;50.580;11.392;2022-07-09T08:46:05;2.25;;;0.85;;
32152;SDS011;18656;50.580;11.392;2022-07-09T08:48:33;4.00;;;1.30;;
32152;SDS011;18656;50.580;11.392;2022-07-09T08:51:01;6.22;;;1.45;;
32152;SDS011;18656;50.580;11.392;2022-07-09T08:53:29;1.23;;;0.50;;
32152;SDS011;18656;50.580;11.392;2022-07-09T08:55:57;2.35;;;0.80;;
32152;SDS011;18656;50.580;11.392;2022-07-09T08:58:24;0.98;;;0.47;;
32152;SDS011;18656;50.580;11.392;2022-07-09T09:00:51;1.20;;;0.70;;
32152;SDS011;18656;50.580;11.392;2022-07-09T09:03:19;1.20;;;0.70;;
32152;SDS011;18656;50.580;11.392;2022-07-09T09:05:59;3.17;;;0.93;;
32152;SDS011;18656;50.580;11.392;2022-07-09T09:08:27;1.55;;;0.93;;
32152;SDS011;18656;50.580;11.392;2022-07-09T09:10:54;2.13;;;0.85;;
32152;SDS011;18656;50.580;11.392;2022-07-09T09:13:21;26.60;;;3.30;;
32152;SDS011;18656;50.580;11.392;2022-07-09T09:15:48;4.93;;;0.80;;
32152;SDS011;18656;50.580;11.392;2022-07-09T09:18:16;1.92;;;1.00;;
32152;SDS011;18656;50.580;11.392;2022-07-09T09:20:46;3.30;;;1.02;;
32152;SDS011;18656;50.580;11.392;2022-07-09T09:23:16;4.47;;;1.23;;
32152;SDS011;18656;50.580;11.392;2022-07-09T09:25:44;3.03;;;1.30;;
32152;SDS011;18656;50.580;11.392;2022-07-09T09:28:11;1.63;;;1.00;;
32152;SDS011;18656;50.580;11.392;2022-07-09T09:30:42;1.85;;;1.23;;
32152;SDS011;18656;50.580;11.392;2022-07-09T09:33:09;2.55;;;1.60;;
32152;SDS011;18656;50.580;11.392;2022-07-09T09:35:44;29.55;;;3.22;;
32152;SDS011;18656;50.580;11.392;2022-07-09T09:38:11;5.05;;;1.65;;
32152;SDS011;18656;50.580;11.392;2022-07-09T09:40:44;4.45;;;1.48;;
32152;SDS011;18656;50.580;11.392;2022-07-09T09:43:11;3.08;;;2.38;;
32152;SDS011;18656;50.580;11.392;2022-07-09T09:45:40;5.20;;;2.22;;
32152;SDS011;18656;50.580;11.392;2022-07-09T09:48:08;6.82;;;5.00;;
32152;SDS011;18656;50.580;11.392;2022-07-09T09:50:35;10.32;;;5.68;;
32152;SDS011;18656;50.580;11.392;2022-07-09T09:53:06;10.35;;;5.50;;
32152;SDS011;18656;50.580;11.392;2022-07-09T09:55:33;5.88;;;4.28;;
32152;SDS011;18656;50.580;11.392;2022-07-09T09:58:01;4.40;;;2.67;;
32152;SDS011;18656;50.580;11.392;2022-07-09T10:00:28;6.47;;;1.70;;
32152;SDS011;18656;50.580;11.392;2022-07-09T10:02:55;1.98;;;1.30;;
32152;SDS011;18656;50.580;11.392;2022-07-09T10:05:22;1.10;;;1.00;;
32152;SDS011;18656;50.580;11.392;2022-07-09T10:07:51;1.98;;;1.17;;
32152;SDS011;18656;50.580;11.392;2022-07-09T10:10:19;1.10;;;1.00;;
32152;SDS011;18656;50.580;11.392;2022-07-09T10:12:47;2.30;;;1.17;;
32152;SDS011;18656;50.580;11.392;2022-07-09T10:15:24;2.50;;;0.70;;
32152;SDS011;18656;50.580;11.392;2022-07-09T10:17:53;0.70;;;0.70;;
32152;SDS011;18656;50.580;11.392;2022-07-09T10:20:30;1.98;;;1.00;;
32152;SDS011;18656;50.580;11.392;2022-07-09T10:23:00;1.63;;;0.90;;
32152;SDS011;18656;50.580;11.392;2022-07-09T10:25:28;3.63;;;1.00;;
32152;SDS011;18656;50.580;11.392;2022-07-09T10:27:56;5.53;;;1.10;;
32152;SDS011;18656;50.580;11.392;2022-07-09T10:35:50;2.17;;;1.20;;
32152;SDS011;18656;50.580;11.392;2022-07-09T10:38:19;2.95;;;1.10;;
32152;SDS011;18656;50.580;11.392;2022-07-09T10:40:55;1.00;;;0.60;;
32152;SDS011;18656;50.580;11.392;2022-07-09T10:46:29;1.40;;;0.80;;
32152;SDS011;18656;50.580;11.392;2022-07-09T10:48:58;0.60;;;0.60;;
32152;SDS011;18656;50.580;11.392;2022-07-09T10:51:25;1.60;;;0.70;;
32152;SDS011;18656;50.580;11.392;2022-07-09T10:53:53;3.72;;;0.90;;
32152;SDS011;18656;50.580;11.392;2022-07-09T10:56:21;2.10;;;0.50;;
32152;SDS011;18656;50.580;11.392;2022-07-09T10:58:48;2.10;;;0.73;;
32152;SDS011;18656;50.580;11.392;2022-07-09T11:01:23;1.50;;;0.77;;
32152;SDS011;18656;50.580;11.392;2022-07-09T11:03:54;1.27;;;0.65;;
32152;SDS011;18656;50.580;11.392;2022-07-09T11:06:21;1.48;;;0.70;;
32152;SDS011;18656;50.580;11.392;2022-07-09T11:08:51;1.60;;;0.40;;
32152;SDS011;18656;50.580;11.392;2022-07-09T11:11:21;1.13;;;0.70;;
32152;SDS011;18656;50.580;11.392;2022-07-09T11:13:49;1.13;;;0.60;;
32152;SDS011;18656;50.580;11.392;2022-07-09T11:16:21;0.93;;;0.50;;
32152;SDS011;18656;50.580;11.392;2022-07-09T11:18:49;1.55;;;0.60;;
32152;SDS011;18656;50.580;11.392;2022-07-09T11:21:21;0.43;;;0.43;;
32152;SDS011;18656;50.580;11.392;2022-07-09T11:23:48;1.45;;;0.50;;
32152;SDS011;18656;50.580;11.392;2022-07-09T11:26:15;0.70;;;0.60;;
32152;SDS011;18656;50.580;11.392;2022-07-09T11:28:42;2.00;;;0.55;;
32152;SDS011;18656;50.580;11.392;2022-07-09T11:31:12;1.08;;;0.63;;
32152;SDS011;18656;50.580;11.392;2022-07-09T11:33:39;1.17;;;0.65;;
32152;SDS011;18656;50.580;11.392;2022-07-09T11:36:25;2.45;;;0.80;;
32152;SDS011;18656;50.580;11.392;2022-07-09T11:39:01;0.68;;;0.50;;
32152;SDS011;18656;50.580;11.392;2022-07-09T11:41:39;1.30;;;0.70;;
32152;SDS011;18656;50.580;11.392;2022-07-09T11:44:06;1.20;;;0.70;;
32152;SDS011;18656;50.580;11.392;2022-07-09T11:46:33;0.50;;;0.50;;
32152;SDS011;18656;50.580;11.392;2022-07-09T11:49:15;1.17;;;0.47;;
32152;SDS011;18656;50.580;11.392;2022-07-09T11:51:42;0.50;;;0.50;;
32152;SDS011;18656;50.580;11.392;2022-07-09T11:54:09;0.75;;;0.50;;
32152;SDS011;18656;50.580;11.392;2022-07-09T11:56:43;0.65;;;0.45;;
32152;SDS011;18656;50.580;11.392;2022-07-09T11:59:12;1.05;;;0.50;;
32152;SDS011;18656;50.580;11.392;2022-07-09T12:01:39;0.88;;;0.57;;
32152;SDS011;18656;50.580;11.392;2022-07-09T12:04:06;2.35;;;0.70;;
32152;SDS011;18656;50.580;11.392;2022-07-09T12:06:48;1.10;;;0.60;;
32152;SDS011;18656;50.580;11.392;2022-07-09T12:09:15;0.93;;;0.40;;
32152;SDS011;18656;50.580;11.392;2022-07-09T12:11:53;0.93;;;0.70;;
32152;SDS011;18656;50.580;11.392;2022-07-09T12:14:20;1.08;;;0.50;;
32152;SDS011;18656;50.580;11.392;2022-07-09T12:16:47;0.77;;;0.55;;
32152;SDS011;18656;50.580;11.392;2022-07-09T12:19:14;0.85;;;0.52;;
32152;SDS011;18656;50.580;11.392;2022-07-09T12:21:42;0.95;;;0.60;;
32152;SDS011;18656;50.580;11.392;2022-07-09T12:24:09;0.60;;;0.60;;
32152;SDS011;18656;50.580;11.392;2022-07-09T12:26:36;0.40;;;0.40;;
32152;SDS011;18656;50.580;11.392;2022-07-09T12:29:23;0.50;;;0.50;;
32152;SDS011;18656;50.580;11.392;2022-07-09T12:31:51;1.10;;;0.50;;
32152;SDS011;18656;50.580;11.392;2022-07-09T12:34:18;0.93;;;0.80;;
32152;SDS011;18656;50.580;11.392;2022-07-09T12:36:45;1.70;;;0.90;;
32152;SDS011;18656;50.580;11.392;2022-07-09T12:39:24;1.15;;;0.73;;
32152;SDS011;18656;50.580;11.392;2022-07-09T12:41:51;2.20;;;0.80;;
32152;SDS011;18656;50.580;11.392;2022-07-09T12:44:18;0.93;;;0.90;;
32152;SDS011;18656;50.580;11.392;2022-07-09T12:46:45;1.55;;;0.90;;
32152;SDS011;18656;50.580;11.392;2022-07-09T12:49:13;0.82;;;0.70;;
32152;SDS011;18656;50.580;11.392;2022-07-09T12:51:40;3.28;;;1.00;;
32152;SDS011;18656;50.580;11.392;2022-07-09T12:54:07;1.63;;;0.73;;
32152;SDS011;18656;50.580;11.392;2022-07-09T12:56:35;0.77;;;0.68;;
32152;SDS011;18656;50.580;11.392;2022-07-09T12:59:22;0.70;;;0.55;;
32152;SDS011;18656;50.580;11.392;2022-07-09T13:01:51;0.95;;;0.60;;
32152;SDS011;18656;50.580;11.392;2022-07-09T13:04:18;0.50;;;0.50;;
32152;SDS011;18656;50.580;11.392;2022-07-09T13:06:46;0.90;;;0.60;;
32152;SDS011;18656;50.580;11.392;2022-07-09T13:09:13;4.35;;;0.85;;
32152;SDS011;18656;50.580;11.392;2022-07-09T13:11:41;0.75;;;0.50;;
32152;SDS011;18656;50.580;11.392;2022-07-09T13:14:08;1.05;;;0.68;;
32152;SDS011;18656;50.580;11.392;2022-07-09T13:16:35;0.55;;;0.40;;
32152;SDS011;18656;50.580;11.392;2022-07-09T13:19:03;0.85;;;0.55;;
32152;SDS011;18656;50.580;11.392;2022-07-09T13:21:30;0.80;;;0.40;;
32152;SDS011;18656;50.580;11.392;2022-07-09T13:23:57;1.98;;;0.80;;
32152;SDS011;18656;50.580;11.392;2022-07-09T13:26:25;0.55;;;0.55;;
32152;SDS011;18656;50.580;11.392;2022-07-09T13:28:52;0.98;;;0.55;;
32152;SDS011;18656;50.580;11.392;2022-07-09T13:31:19;0.95;;;0.60;;
32152;SDS011;18656;50.580;11.392;2022-07-09T13:33:48;1.23;;;0.60;;
32152;SDS011;18656;50.580;11.392;2022-07-09T13:36:15;0.45;;;0.45;;
32152;SDS011;18656;50.580;11.392;2022-07-09T13:38:42;2.05;;;0.50;;
32152;SDS011;18656;50.580;11.392;2022-07-09T13:41:09;0.50;;;0.50;;
32152;SDS011;18656;50.580;11.392;2022-07-09T13:43:37;0.73;;;0.63;;
32152;SDS011;18656;50.580;11.392;2022-07-09T13:46:10;1.55;;;0.60;;
32152;SDS011;18656;50.580;11.392;2022-07-09T13:48:38;0.60;;;0.55;;
32152;SDS011;18656;50.580;11.392;2022-07-09T13:51:05;0.85;;;0.60;;
32152;SDS011;18656;50.580;11.392;2022-07-09T13:53:32;0.50;;;0.50;;
32152;SDS011;18656;50.580;11.392;2022-07-09T13:56:00;0.80;;;0.80;;
32152;SDS011;18656;50.580;11.392;2022-07-09T13:58:28;1.05;;;0.80;;
32152;SDS011;18656;50.580;11.392;2022-07-09T14:00:55;6.68;;;1.50;;
32152;SDS011;18656;50.580;11.392;2022-07-09T14:03:22;8.32;;;1.58;;
32152;SDS011;18656;50.580;11.392;2022-07-09T14:05:49;6.03;;;1.50;;
32152;SDS011;18656;50.580;11.392;2022-07-09T14:08:17;2.97;;;1.40;;
32152;SDS011;18656;50.580;11.392;2022-07-09T14:10:48;2.30;;;1.25;;
32152;SDS011;18656;50.580;11.392;2022-07-09T14:13:17;2.78;;;1.50;;
32152;SDS011;18656;50.580;11.392;2022-07-09T14:15:45;1.70;;;1.10;;
32152;SDS011;18656;50.580;11.392;2022-07-09T14:18:12;6.80;;;2.13;;
32152;SDS011;18656;50.580;11.392;2022-07-09T14:20:39;1.50;;;1.40;;
32152;SDS011;18656;50.580;11.392;2022-07-09T14:23:07;7.70;;;1.40;;
32152;SDS011;18656;50.580;11.392;2022-07-09T14:25:34;4.50;;;1.40;;
32152;SDS011;18656;50.580;11.392;2022-07-09T14:28:01;1.13;;;1.13;;
32152;SDS011;18656;50.580;11.392;2022-07-09T14:30:28;1.95;;;1.33;;
32152;SDS011;18656;50.580;11.392;2022-07-09T14:32:55;2.45;;;1.17;;
32152;SDS011;18656;50.580;11.392;2022-07-09T14:35:26;1.40;;;1.30;;
32152;SDS011;18656;50.580;11.392;2022-07-09T14:37:53;1.40;;;1.38;;
32152;SDS011;18656;50.580;11.392;2022-07-09T14:40:21;1.42;;;1.33;;
32152;SDS011;18656;50.580;11.392;2022-07-09T14:42:49;2.22;;;1.38;;
32152;SDS011;18656;50.580;11.392;2022-07-09T14:45:16;1.48;;;1.38;;
32152;SDS011;18656;50.580;11.392;2022-07-09T14:47:44;1.80;;;1.70;;